Logan, Oklahoma
Current Conditions -  °F | °C
As of 12:55 PM on Sunday 23 Nov 2014 (Local Time) from KWWR Reporting Station
Overcast Overcast  
Wind Chill: 50°   Ceiling: 3700
Heat Index: 50°   Visibility: 10mi
Dew Point: 34°   Wind: 30mph
Humidity: 54%   Direction: 350°N
Pressure: 29.52"   Gusts: 45mph
Location:  36.6998°N, 99.856°W
Report Text: KWWR 231855Z AUTO 35026G39KT 10SM OVC037 10/01 A2952 RMK AO2
Loading
Personal Weather Stations






























Interactive Weather Map New forecast layout! Learn more

10-Day Weather Forecast

Advertisements
Track Severe Weather on mobile